Time;durP1;ratioP1;P1;durP2;ratioP2;P2;SDS_P1;SDS_P2;PMS_P1;PMS_P2;Temp;Humidity;BMP_temperature;BMP_pressure;BME280_temperature;BME280_humidity;BME280_pressure;Samples;Min_cycle;Max_cycle;Signal;HPM_P1;HPM_P2
2022/07/12 00:00:23;;;;;;;1.83;0.73;;;23.40;58.80;;;;;;4942388;28;20257;-77
2022/07/12 00:02:51;;;;;;;2.85;0.90;;;23.40;58.90;;;;;;4941106;28;20213;-78
2022/07/12 00:05:21;;;;;;;2.83;0.90;;;23.30;59.00;;;;;;4940682;28;20192;-78
2022/07/12 00:07:50;;;;;;;1.48;0.93;;;23.30;59.00;;;;;;4940588;28;20240;-77
2022/07/12 00:10:18;;;;;;;1.77;0.90;;;23.30;59.00;;;;;;4943863;28;20641;-78
2022/07/12 00:12:47;;;;;;;1.50;1.00;;;23.30;59.10;;;;;;4943924;28;20250;-78
2022/07/12 00:15:16;;;;;;;2.35;0.63;;;23.20;58.90;;;;;;4938268;28;20203;-77
2022/07/12 00:17:45;;;;;;;1.42;0.80;;;23.20;59.00;;;;;;4939630;28;20720;-78
2022/07/12 00:20:13;;;;;;;3.22;1.10;;;23.20;58.90;;;;;;4940097;28;20320;-77
2022/07/12 00:22:43;;;;;;;2.30;0.75;;;23.10;58.80;;;;;;4937895;28;20241;-78
2022/07/12 00:25:11;;;;;;;1.27;0.80;;;23.10;58.60;;;;;;4933668;28;20213;-78
2022/07/12 00:27:40;;;;;;;1.85;1.00;;;23.10;58.50;;;;;;4943734;28;20222;-78
2022/07/12 00:30:09;;;;;;;2.08;0.88;;;23.00;58.40;;;;;;4940071;28;20202;-77
2022/07/12 00:32:37;;;;;;;0.75;0.50;;;23.00;57.90;;;;;;4938958;28;20194;-79
2022/07/12 00:35:07;;;;;;;3.47;1.27;;;23.00;57.50;;;;;;4938228;28;20210;-79
2022/07/12 00:37:35;;;;;;;0.80;0.60;;;23.00;57.40;;;;;;4941496;28;20198;-78
2022/07/12 00:40:08;;;;;;;1.00;0.70;;;23.00;57.40;;;;;;4941553;28;20214;-78
2022/07/12 00:42:38;;;;;;;1.95;0.70;;;22.90;57.30;;;;;;4945980;28;20507;-78
2022/07/12 00:45:08;;;;;;;1.88;0.63;;;23.00;57.40;;;;;;4945817;28;20202;-78
2022/07/12 00:47:40;;;;;;;1.10;0.70;;;22.90;57.20;;;;;;4936094;28;21366;-79
2022/07/12 00:50:10;;;;;;;1.55;0.55;;;22.90;57.30;;;;;;4943168;28;20222;-80
2022/07/12 00:52:39;;;;;;;2.13;0.77;;;22.90;57.40;;;;;;4944314;28;20217;-78
2022/07/12 00:55:10;;;;;;;0.80;0.60;;;22.90;57.50;;;;;;4940720;28;20206;-79
2022/07/12 00:57:39;;;;;;;1.23;0.68;;;22.90;57.60;;;;;;4948107;28;20199;-78
2022/07/12 01:00:10;;;;;;;1.65;0.80;;;22.90;57.60;;;;;;4936217;28;20818;-78
2022/07/12 01:02:39;;;;;;;1.70;0.70;;;22.90;57.60;;;;;;4945448;28;20207;-80
2022/07/12 01:05:09;;;;;;;1.65;0.70;;;22.90;57.50;;;;;;4945703;28;20194;-80
2022/07/12 01:07:38;;;;;;;0.65;0.57;;;22.90;57.60;;;;;;4940713;28;20199;-77
2022/07/12 01:10:09;;;;;;;2.03;0.60;;;22.90;57.60;;;;;;4943076;28;20198;-77
2022/07/12 01:12:37;;;;;;;2.63;0.80;;;22.90;57.70;;;;;;4942610;28;20657;-77
2022/07/12 01:15:07;;;;;;;0.80;0.60;;;22.90;57.70;;;;;;4946351;28;20214;-78
2022/07/12 01:17:36;;;;;;;1.92;0.65;;;22.90;58.40;;;;;;4943925;28;20210;-77
2022/07/12 01:20:06;;;;;;;0.65;0.60;;;22.90;57.70;;;;;;4943342;28;20205;-77
2022/07/12 01:22:37;;;;;;;1.80;0.80;;;22.90;57.80;;;;;;4944607;28;20206;-77
2022/07/12 01:25:07;;;;;;;0.70;0.60;;;22.90;57.90;;;;;;4942001;28;20287;-78
2022/07/12 01:27:38;;;;;;;1.65;0.70;;;22.90;57.90;;;;;;4940517;28;20206;-77
2022/07/12 01:30:07;;;;;;;1.58;0.73;;;23.00;57.90;;;;;;4933767;28;20893;-78
2022/07/12 01:32:35;;;;;;;2.58;1.30;;;22.90;58.00;;;;;;4945345;28;20210;-78
2022/07/12 01:35:06;;;;;;;1.10;0.55;;;22.90;58.00;;;;;;4939081;28;20199;-76
2022/07/12 01:37:36;;;;;;;1.55;0.80;;;22.90;58.10;;;;;;4938929;28;20285;-78
2022/07/12 01:40:08;;;;;;;1.10;0.70;;;22.90;58.00;;;;;;4945650;28;20834;-77
2022/07/12 01:42:37;;;;;;;1.35;0.70;;;22.90;58.10;;;;;;4942001;28;20241;-77
2022/07/12 01:45:07;;;;;;;1.90;0.73;;;22.90;58.10;;;;;;4940303;28;20199;-77
2022/07/12 01:47:36;;;;;;;1.50;0.70;;;22.90;58.10;;;;;;4937214;28;20609;-77
2022/07/12 01:50:06;;;;;;;3.50;0.68;;;22.90;58.00;;;;;;4938485;28;20226;-76
2022/07/12 01:52:36;;;;;;;2.42;0.70;;;22.90;58.10;;;;;;4944260;28;20205;-77
2022/07/12 01:55:07;;;;;;;0.55;0.50;;;22.90;58.20;;;;;;4943399;28;20204;-77
2022/07/12 01:57:36;;;;;;;2.92;0.95;;;22.90;58.30;;;;;;4940148;28;20231;-77
2022/07/12 02:00:07;;;;;;;1.15;0.70;;;22.90;58.40;;;;;;4937630;28;20193;-78
2022/07/12 02:02:35;;;;;;;1.52;0.70;;;22.90;58.60;;;;;;4937355;28;20218;-77
2022/07/12 02:05:04;;;;;;;2.10;0.80;;;22.80;58.70;;;;;;4932953;28;20577;-78
2022/07/12 02:07:34;;;;;;;3.08;1.10;;;22.80;58.80;;;;;;4937447;28;20213;-78
2022/07/12 02:10:03;;;;;;;4.05;1.00;;;22.90;58.80;;;;;;4949449;28;20226;-77
2022/07/12 02:12:33;;;;;;;1.23;0.70;;;22.80;58.70;;;;;;4943617;28;20201;-78
2022/07/12 02:15:01;;;;;;;0.93;0.70;;;22.80;58.60;;;;;;4937360;28;20202;-78
2022/07/12 02:17:29;;;;;;;2.38;0.70;;;22.80;58.60;;;;;;4940998;28;20203;-77
2022/07/12 02:19:58;;;;;;;1.20;0.68;;;22.80;58.60;;;;;;4943733;28;20202;-77
2022/07/12 02:22:26;;;;;;;1.92;0.75;;;22.90;58.60;;;;;;4944681;28;20206;-77
2022/07/12 02:24:55;;;;;;;2.45;0.70;;;22.90;58.70;;;;;;4943496;28;20216;-78
2022/07/12 02:27:23;;;;;;;4.65;0.90;;;22.90;58.70;;;;;;4934224;28;20202;-77
2022/07/12 02:29:53;;;;;;;2.17;0.75;;;22.90;58.80;;;;;;4943390;28;20214;-77
2022/07/12 02:32:22;;;;;;;1.77;0.70;;;22.90;58.80;;;;;;4938818;28;20203;-77
2022/07/12 02:34:50;;;;;;;0.80;0.70;;;22.90;58.80;;;;;;4937846;28;20300;-76
2022/07/12 02:37:19;;;;;;;1.35;0.75;;;22.90;58.80;;;;;;4949631;28;20459;-77
2022/07/12 02:39:47;;;;;;;1.45;0.70;;;22.90;58.80;;;;;;4943635;28;20198;-77
2022/07/12 02:42:15;;;;;;;1.77;0.80;;;22.90;58.90;;;;;;4947878;28;20228;-78
2022/07/12 02:44:44;;;;;;;1.20;0.80;;;22.90;58.90;;;;;;4945774;28;20198;-78
2022/07/12 02:47:13;;;;;;;2.67;0.70;;;22.90;59.00;;;;;;4946388;28;20575;-78
2022/07/12 02:49:42;;;;;;;1.88;1.00;;;22.90;59.10;;;;;;4955972;28;20225;-78
2022/07/12 02:52:10;;;;;;;2.65;1.02;;;22.90;59.30;;;;;;4948954;28;20616;-77
2022/07/12 02:54:39;;;;;;;3.00;0.70;;;22.90;59.40;;;;;;4945125;28;20199;-77
2022/07/12 02:57:07;;;;;;;4.00;0.90;;;22.90;59.40;;;;;;4953454;28;20210;-78
2022/07/12 02:59:35;;;;;;;4.53;1.10;;;22.90;59.50;;;;;;4946767;28;20201;-78
2022/07/12 03:02:04;;;;;;;1.88;0.90;;;22.90;59.50;;;;;;4949679;28;20202;-78
2022/07/12 03:04:34;;;;;;;3.28;1.42;;;22.90;59.70;;;;;;4946921;28;20230;-77
2022/07/12 03:07:04;;;;;;;1.80;0.85;;;22.90;59.70;;;;;;4937131;28;20203;-78
2022/07/12 03:09:33;;;;;;;1.42;0.77;;;22.90;59.70;;;;;;4939106;28;20215;-78
2022/07/12 03:12:01;;;;;;;2.03;0.98;;;22.90;59.80;;;;;;4947231;28;20209;-78
2022/07/12 03:14:29;;;;;;;4.70;1.10;;;22.90;59.90;;;;;;4936084;28;20199;-79
2022/07/12 03:16:57;;;;;;;4.03;0.90;;;22.90;60.00;;;;;;4946550;28;20209;-79
2022/07/12 03:19:26;;;;;;;2.40;1.00;;;22.90;60.20;;;;;;4941565;28;20228;-79
2022/07/12 03:21:55;;;;;;;5.47;1.45;;;22.90;60.30;;;;;;4943331;28;20202;-79
2022/07/12 03:24:24;;;;;;;2.33;1.10;;;22.80;60.30;;;;;;4948975;28;20206;-78
2022/07/12 03:26:52;;;;;;;5.18;1.15;;;22.80;60.50;;;;;;4944148;28;20238;-78
2022/07/12 03:29:20;;;;;;;2.40;1.15;;;22.80;60.70;;;;;;4945830;28;20574;-79
2022/07/12 03:31:49;;;;;;;6.18;1.65;;;22.80;60.90;;;;;;4943987;28;20202;-78
2022/07/12 03:34:17;;;;;;;4.00;1.38;;;22.80;61.00;;;;;;4945326;28;20676;-79
2022/07/12 03:36:46;;;;;;;2.78;1.40;;;22.80;61.10;;;;;;4949275;28;20209;-79
2022/07/12 03:39:15;;;;;;;4.28;1.38;;;22.80;61.30;;;;;;4947687;28;20202;-78
2022/07/12 03:41:44;;;;;;;2.95;1.20;;;22.80;61.70;;;;;;4950340;28;20208;-78
2022/07/12 03:44:12;;;;;;;8.40;1.40;;;22.80;61.70;;;;;;4941457;28;20206;-79
2022/07/12 03:46:40;;;;;;;6.28;1.40;;;22.80;61.90;;;;;;4937752;28;20199;-78
2022/07/12 03:49:09;;;;;;;3.22;1.20;;;22.80;62.00;;;;;;4939934;28;20222;-77
2022/07/12 03:51:37;;;;;;;5.13;1.10;;;22.80;62.20;;;;;;4939351;28;20890;-79
2022/07/12 03:54:07;;;;;;;7.22;1.73;;;22.80;62.40;;;;;;4945787;28;20214;-79
2022/07/12 03:59:23;;;;;;;2.42;1.17;;;22.80;62.70;;;;;;4942604;28;20227;-78
2022/07/12 04:01:51;;;;;;;3.22;1.42;;;22.70;62.70;;;;;;4945813;28;20205;-79
2022/07/12 04:04:20;;;;;;;2.15;1.23;;;22.70;62.70;;;;;;4945639;28;20230;-79
2022/07/12 04:06:48;;;;;;;4.93;1.95;;;22.70;62.80;;;;;;4945421;28;20207;-80
2022/07/12 04:09:17;;;;;;;2.60;1.40;;;22.70;62.70;;;;;;4941292;28;20230;-79
2022/07/12 04:11:47;;;;;;;2.08;1.23;;;22.70;62.70;;;;;;4939792;28;20671;-79
2022/07/12 04:14:15;;;;;;;7.82;1.75;;;22.70;62.80;;;;;;4945576;28;20206;-78
2022/07/12 04:16:44;;;;;;;4.15;1.70;;;22.70;63.00;;;;;;4939365;28;20221;-78
2022/07/12 04:19:13;;;;;;;7.32;1.88;;;22.70;63.20;;;;;;4942682;28;20199;-79
2022/07/12 04:21:41;;;;;;;4.90;1.60;;;22.70;63.20;;;;;;4937782;28;20205;-79
2022/07/12 04:24:09;;;;;;;4.78;1.77;;;22.70;63.20;;;;;;4943280;28;20210;-79
2022/07/12 04:26:38;;;;;;;6.35;2.13;;;22.70;63.40;;;;;;4937424;28;20230;-80
2022/07/12 04:29:08;;;;;;;6.07;1.67;;;22.70;63.50;;;;;;4947950;28;20214;-78
2022/07/12 04:31:36;;;;;;;7.95;1.70;;;22.60;63.60;;;;;;4940859;28;20195;-79
2022/07/12 04:34:04;;;;;;;5.35;1.67;;;22.70;63.60;;;;;;4945472;28;20206;-79
2022/07/12 04:36:34;;;;;;;3.35;1.38;;;22.70;63.60;;;;;;4939004;28;20209;-78
2022/07/12 04:39:02;;;;;;;8.18;1.45;;;22.70;63.70;;;;;;4947381;28;20854;-79
2022/07/12 04:41:31;;;;;;;6.68;1.63;;;22.70;64.10;;;;;;4946812;28;20533;-79
2022/07/12 04:43:59;;;;;;;3.85;1.60;;;22.60;64.10;;;;;;4935653;28;20206;-77
2022/07/12 04:46:29;;;;;;;4.65;1.60;;;22.70;64.40;;;;;;4939687;28;20199;-79
2022/07/12 04:48:57;;;;;;;8.75;1.85;;;22.60;64.40;;;;;;4951135;28;20207;-80
2022/07/12 04:51:26;;;;;;;2.90;1.33;;;22.60;64.30;;;;;;4937244;28;20222;-79
2022/07/12 04:53:55;;;;;;;3.30;1.60;;;22.70;64.30;;;;;;4942610;28;20354;-79
2022/07/12 04:56:23;;;;;;;5.80;1.65;;;22.70;64.40;;;;;;4933000;28;20196;-79
2022/07/12 04:58:52;;;;;;;5.25;1.80;;;22.80;64.40;;;;;;4942528;28;20645;-78
2022/07/12 05:01:29;;;;;;;2.40;1.25;;;22.90;64.80;;;;;;4943132;28;20216;-79
2022/07/12 05:03:57;;;;;;;5.75;1.45;;;22.90;64.60;;;;;;4938508;28;20321;-78
2022/07/12 05:06:26;;;;;;;5.68;1.50;;;22.90;64.50;;;;;;4943926;28;20207;-80
2022/07/12 05:08:55;;;;;;;5.53;1.42;;;22.90;64.40;;;;;;4950235;28;20217;-80
2022/07/12 05:11:23;;;;;;;3.42;1.30;;;22.90;64.40;;;;;;4940637;28;20223;-78
2022/07/12 05:13:52;;;;;;;5.05;1.45;;;23.00;64.40;;;;;;4938268;28;20195;-79
2022/07/12 05:16:20;;;;;;;3.30;1.45;;;23.00;64.40;;;;;;4944263;28;20225;-78
2022/07/12 05:18:51;;;;;;;6.10;1.40;;;23.00;64.50;;;;;;4941800;28;20209;-79
2022/07/12 05:21:23;;;;;;;2.50;1.23;;;23.00;64.50;;;;;;4936278;28;20215;-80
2022/07/12 05:23:51;;;;;;;4.93;1.55;;;23.10;64.90;;;;;;4947532;28;20213;-80
2022/07/12 05:26:20;;;;;;;2.80;1.50;;;23.10;65.00;;;;;;4941296;28;20206;-79
2022/07/12 05:28:50;;;;;;;6.10;1.70;;;23.20;65.10;;;;;;4940263;28;20202;-80
2022/07/12 05:31:18;;;;;;;2.47;1.10;;;23.20;65.20;;;;;;4938063;28;20222;-79
2022/07/12 05:33:47;;;;;;;4.57;1.45;;;23.30;65.20;;;;;;4937159;28;20198;-79
2022/07/12 05:36:17;;;;;;;4.82;1.02;;;23.40;64.90;;;;;;4943055;28;20212;-79
2022/07/12 05:38:45;;;;;;;3.58;1.10;;;23.40;64.60;;;;;;4941964;28;20967;-79
2022/07/12 05:41:14;;;;;;;1.95;1.20;;;23.50;64.70;;;;;;4951166;28;20989;-78
2022/07/12 05:43:43;;;;;;;2.47;1.13;;;23.50;64.30;;;;;;4934567;28;20760;-79
2022/07/12 05:46:12;;;;;;;7.75;1.17;;;23.50;63.30;;;;;;4948896;28;20205;-79
2022/07/12 05:48:40;;;;;;;1.48;0.85;;;23.50;63.10;;;;;;4941621;28;20201;-79
2022/07/12 05:53:56;;;;;;;2.10;0.82;;;23.70;62.50;;;;;;4954142;28;20194;-82
2022/07/12 05:56:25;;;;;;;1.27;1.10;;;23.70;62.20;;;;;;4942528;28;20202;-79
2022/07/12 05:58:53;;;;;;;11.20;1.00;;;23.80;61.90;;;;;;4947838;28;20893;-77
2022/07/12 06:01:22;;;;;;;2.88;0.93;;;23.90;61.70;;;;;;4942194;28;20217;-78
2022/07/12 06:03:50;;;;;;;2.53;0.88;;;23.90;61.10;;;;;;4940482;28;22047;-78
2022/07/12 06:06:18;;;;;;;1.95;0.93;;;24.00;59.90;;;;;;4941804;28;20607;-80
2022/07/12 06:08:47;;;;;;;2.33;1.17;;;24.00;59.00;;;;;;4939204;28;21313;-78
2022/07/12 06:11:17;;;;;;;2.45;1.27;;;24.00;58.90;;;;;;4943049;28;20218;-77
2022/07/12 06:13:45;;;;;;;1.30;0.98;;;24.00;59.30;;;;;;4941827;28;20201;-78
2022/07/12 06:16:14;;;;;;;2.08;0.80;;;24.00;59.50;;;;;;4941692;28;20779;-77
2022/07/12 06:18:42;;;;;;;2.83;1.23;;;24.10;59.50;;;;;;4944556;28;20293;-77
2022/07/12 06:21:11;;;;;;;2.28;0.90;;;24.10;59.40;;;;;;4943627;28;20202;-80
2022/07/12 06:23:39;;;;;;;2.83;0.93;;;24.20;59.50;;;;;;4946146;28;20205;-79
2022/07/12 06:26:08;;;;;;;5.93;0.95;;;24.30;59.40;;;;;;4942938;28;20222;-79
2022/07/12 06:28:38;;;;;;;4.63;0.88;;;24.30;59.20;;;;;;4944779;28;20209;-78
2022/07/12 06:31:06;;;;;;;4.50;0.90;;;24.30;58.90;;;;;;4944574;29;20222;-77
2022/07/12 06:33:35;;;;;;;3.03;0.80;;;24.30;58.90;;;;;;4945302;28;20206;-77
2022/07/12 06:36:04;;;;;;;2.03;0.80;;;24.40;58.90;;;;;;4944325;28;20241;-76
2022/07/12 06:38:32;;;;;;;1.58;1.02;;;24.50;58.80;;;;;;4944267;29;20210;-76
2022/07/12 06:41:10;;;;;;;2.85;1.00;;;24.50;58.70;;;;;;4945342;28;22416;-77
2022/07/12 06:43:40;;;;;;;3.15;0.88;;;24.60;58.60;;;;;;4945010;28;20190;-77
2022/07/12 06:46:08;;;;;;;2.35;0.95;;;24.60;58.50;;;;;;4943760;28;20202;-76
2022/07/12 06:48:36;;;;;;;3.05;0.93;;;24.70;58.00;;;;;;4941608;28;20206;-78
2022/07/12 06:51:05;;;;;;;2.90;0.90;;;24.70;58.10;;;;;;4933422;28;20218;-76
2022/07/12 06:53:33;;;;;;;3.58;1.23;;;24.80;57.70;;;;;;4929334;28;20198;-78
2022/07/12 06:56:02;;;;;;;1.92;1.08;;;24.80;57.70;;;;;;4940834;28;20607;-80
2022/07/12 06:58:30;;;;;;;3.42;1.10;;;24.80;57.80;;;;;;4940527;28;20206;-79
2022/07/12 07:01:00;;;;;;;3.78;1.20;;;24.80;57.40;;;;;;4944936;29;20194;-77
2022/07/12 07:03:28;;;;;;;2.60;0.80;;;24.90;57.40;;;;;;4945068;28;20928;-77
2022/07/12 07:05:57;;;;;;;1.38;0.85;;;24.90;57.30;;;;;;4942173;28;20203;-78
2022/07/12 07:08:25;;;;;;;2.67;0.88;;;24.90;57.10;;;;;;4943201;28;20720;-78
2022/07/12 07:10:53;;;;;;;1.70;0.82;;;25.00;57.20;;;;;;4943168;28;20221;-78
2022/07/12 07:13:22;;;;;;;2.38;1.38;;;25.00;57.20;;;;;;4934541;28;20689;-77
2022/07/12 07:15:50;;;;;;;5.88;1.63;;;25.00;56.70;;;;;;4945386;28;20202;-78
2022/07/12 07:18:20;;;;;;;2.35;0.93;;;25.00;56.80;;;;;;4942074;28;20217;-77
2022/07/12 07:20:49;;;;;;;4.38;1.00;;;25.10;57.00;;;;;;4939579;28;20277;-77
2022/07/12 07:23:19;;;;;;;4.38;1.27;;;25.10;57.00;;;;;;4946351;28;20601;-78
2022/07/12 07:25:47;;;;;;;2.80;0.90;;;25.10;56.80;;;;;;4948195;28;20208;-78
2022/07/12 07:28:16;;;;;;;1.75;1.00;;;25.20;56.80;;;;;;4945200;28;20229;-77
2022/07/12 07:30:53;;;;;;;1.42;0.70;;;25.20;56.90;;;;;;4943021;28;20724;-79
2022/07/12 07:33:25;;;;;;;0.93;0.70;;;25.20;56.90;;;;;;4947751;28;20206;-78
2022/07/12 07:35:53;;;;;;;1.63;0.70;;;25.30;56.60;;;;;;4948281;29;20215;-77
2022/07/12 07:38:22;;;;;;;1.42;0.80;;;25.30;56.20;;;;;;4948578;29;20225;-78
2022/07/12 07:40:50;;;;;;;1.35;0.80;;;25.40;56.10;;;;;;4950431;29;20202;-79
2022/07/12 07:43:19;;;;;;;2.38;0.98;;;25.40;55.90;;;;;;4946973;28;20198;-77
2022/07/12 07:45:47;;;;;;;2.45;1.05;;;25.40;55.80;;;;;;4946952;28;20210;-78
2022/07/12 07:48:15;;;;;;;4.68;0.90;;;25.50;55.60;;;;;;4949355;28;20248;-78
2022/07/12 07:50:55;;;;;;;1.98;0.82;;;25.50;55.50;;;;;;4949701;29;20206;-78
2022/07/12 07:53:25;;;;;;;1.13;0.70;;;25.60;55.40;;;;;;4948300;28;20253;-79
2022/07/12 07:55:54;;;;;;;4.13;0.90;;;25.60;55.50;;;;;;4945914;29;20199;-79
2022/07/12 07:58:23;;;;;;;3.33;1.08;;;25.60;55.40;;;;;;4945912;28;20202;-79
2022/07/12 08:00:52;;;;;;;1.67;0.98;;;25.70;55.40;;;;;;4943847;28;20194;-78
2022/07/12 08:03:20;;;;;;;5.57;0.73;;;25.70;55.30;;;;;;4948479;28;20226;-77
2022/07/12 08:05:50;;;;;;;2.15;0.80;;;25.70;54.90;;;;;;4943399;28;20454;-78
2022/07/12 08:08:20;;;;;;;5.15;1.02;;;25.80;54.80;;;;;;4944315;28;20202;-77
2022/07/12 08:10:50;;;;;;;1.20;0.80;;;25.80;54.80;;;;;;4942718;28;20213;-78
2022/07/12 08:13:19;;;;;;;4.47;1.30;;;25.90;54.30;;;;;;4947462;28;20257;-77
2022/07/12 08:15:48;;;;;;;2.20;0.85;;;25.90;54.10;;;;;;4946903;28;20724;-77
2022/07/12 08:18:16;;;;;;;2.30;0.80;;;25.90;54.00;;;;;;4946814;28;20382;-76
2022/07/12 08:20:45;;;;;;;4.65;1.20;;;26.00;54.20;;;;;;4947982;29;20210;-77
2022/07/12 08:23:16;;;;;;;2.97;1.33;;;26.00;53.70;;;;;;4947810;28;20198;-75
2022/07/12 08:25:45;;;;;;;10.35;1.25;;;26.00;53.90;;;;;;4945885;28;20206;-76
2022/07/12 08:28:14;;;;;;;3.03;1.00;;;26.10;54.00;;;;;;4947452;28;20199;-75
2022/07/12 08:30:42;;;;;;;1.10;0.80;;;26.10;53.90;;;;;;4946356;28;20234;-79
2022/07/12 08:33:15;;;;;;;3.78;0.80;;;26.10;53.80;;;;;;4939739;28;20221;-76
2022/07/12 08:35:44;;;;;;;2.38;0.90;;;26.00;54.00;;;;;;4940188;28;20207;-76
2022/07/12 08:38:13;;;;;;;3.78;1.10;;;26.00;53.90;;;;;;4941927;28;20222;-75
2022/07/12 08:40:44;;;;;;;5.07;1.00;;;26.00;53.80;;;;;;4946726;28;20205;-78
2022/07/12 08:43:15;;;;;;;3.80;0.98;;;25.90;53.80;;;;;;4946910;28;20186;-76
2022/07/12 08:45:44;;;;;;;1.48;0.90;;;25.90;53.80;;;;;;4947546;29;20202;-75
2022/07/12 08:48:12;;;;;;;2.80;0.98;;;26.00;53.90;;;;;;4945586;28;20202;-75
2022/07/12 08:50:41;;;;;;;2.38;1.00;;;26.00;53.90;;;;;;4943598;28;20199;-75
2022/07/12 08:53:13;;;;;;;3.22;1.08;;;26.10;54.00;;;;;;4943759;28;20218;-75
2022/07/12 08:55:42;;;;;;;2.45;1.02;;;26.10;53.90;;;;;;4946168;28;20257;-76
2022/07/12 08:58:18;;;;;;;1.63;0.90;;;26.10;53.50;;;;;;4938328;28;20685;-77
2022/07/12 09:00:47;;;;;;;4.18;1.10;;;26.10;53.70;;;;;;4941588;28;20206;-76
2022/07/12 09:03:18;;;;;;;3.08;1.10;;;26.10;53.80;;;;;;4944384;28;20233;-74
2022/07/12 09:05:52;;;;;;;1.23;0.88;;;26.10;54.00;;;;;;4934328;28;20830;-77
2022/07/12 09:08:29;;;;;;;2.08;0.85;;;26.10;54.00;;;;;;4933478;28;20310;-77
2022/07/12 09:11:00;;;;;;;5.32;1.00;;;26.20;54.20;;;;;;4935055;28;20281;-75
2022/07/12 09:13:51;;;;;;;3.30;1.10;;;26.20;54.00;;;;;;4944342;28;20214;-77
2022/07/12 09:16:21;;;;;;;4.82;0.90;;;26.20;54.20;;;;;;4942450;28;20672;-78
2022/07/12 09:18:50;;;;;;;2.15;0.93;;;26.20;53.90;;;;;;4943592;28;20609;-75
2022/07/12 09:21:24;;;;;;;3.65;1.05;;;26.30;53.30;;;;;;4945628;28;20203;-76
2022/07/12 09:23:54;;;;;;;2.38;0.80;;;26.20;51.70;;;;;;4933089;28;20199;-77
2022/07/12 09:26:22;;;;;;;1.67;0.73;;;26.20;52.00;;;;;;4943995;28;20572;-77
2022/07/12 09:28:52;;;;;;;3.22;1.13;;;26.20;52.10;;;;;;4935997;28;20191;-77
2022/07/12 09:31:21;;;;;;;2.95;1.00;;;26.30;52.10;;;;;;4936178;28;20202;-75
2022/07/12 09:36:58;;;;;;;2.08;0.80;;;26.40;51.70;;;;;;4901097;28;20202;-77
2022/07/12 09:39:26;;;;;;;4.75;1.15;;;26.50;52.10;;;;;;4940291;28;20594;-75
2022/07/12 09:41:57;;;;;;;3.78;0.90;;;26.60;51.80;;;;;;4932553;28;20282;-78
2022/07/12 09:44:30;;;;;;;4.05;0.93;;;26.60;51.90;;;;;;4941725;28;20202;-76
2022/07/12 09:47:01;;;;;;;1.42;0.70;;;26.70;52.10;;;;;;4942268;28;20202;-75
2022/07/12 09:49:30;;;;;;;1.83;0.65;;;26.80;51.30;;;;;;4948352;28;20197;-76
2022/07/12 09:52:01;;;;;;;4.15;0.80;;;26.90;50.60;;;;;;4938771;28;20202;-75
2022/07/12 09:54:39;;;;;;;1.77;0.82;;;27.00;51.00;;;;;;4946798;28;20902;-75
2022/07/12 09:57:19;;;;;;;1.40;0.70;;;27.00;50.00;;;;;;4945830;28;20213;-77
2022/07/12 09:59:52;;;;;;;1.00;0.70;;;27.10;50.10;;;;;;4941328;28;20612;-76
2022/07/12 10:02:23;;;;;;;1.90;0.85;;;27.20;49.90;;;;;;4939169;28;20202;-76
2022/07/12 10:04:53;;;;;;;1.20;0.80;;;27.20;49.50;;;;;;4945978;28;20929;-77
2022/07/12 10:07:22;;;;;;;6.45;1.10;;;27.20;49.80;;;;;;4941837;28;20230;-76
2022/07/12 10:09:53;;;;;;;19.00;1.30;;;27.20;50.80;;;;;;4944778;29;20213;-79
2022/07/12 10:12:24;;;;;;;3.15;0.90;;;27.30;50.00;;;;;;4945946;28;20203;-77
2022/07/12 10:15:00;;;;;;;1.25;0.70;;;27.40;49.70;;;;;;4939752;28;20195;-80
2022/07/12 10:17:30;;;;;;;1.77;0.82;;;27.50;49.80;;;;;;4943443;28;20194;-76
2022/07/12 10:20:16;;;;;;;1.83;0.90;;;27.60;49.80;;;;;;4945132;29;20200;-76
2022/07/12 10:22:45;;;;;;;1.75;0.70;;;27.70;49.60;;;;;;4945561;28;20194;-77
2022/07/12 10:25:33;;;;;;;1.50;0.90;;;27.70;49.40;;;;;;4941050;28;20198;-77
2022/07/12 10:28:03;;;;;;;3.08;0.70;;;27.80;48.90;;;;;;4940689;28;20711;-78
2022/07/12 10:30:43;;;;;;;2.83;0.90;;;27.90;48.60;;;;;;4943198;28;20839;-76
2022/07/12 10:33:17;;;;;;;1.00;0.90;;;27.90;48.00;;;;;;4944304;28;20222;-78
2022/07/12 10:36:00;;;;;;;1.98;0.98;;;28.00;48.10;;;;;;4937912;28;20197;-75
2022/07/12 10:38:28;;;;;;;2.28;0.90;;;28.10;48.10;;;;;;4943511;29;20195;-78
2022/07/12 10:40:57;;;;;;;3.85;0.75;;;28.10;48.00;;;;;;4948088;28;20202;-76
2022/07/12 10:46:20;;;;;;;2.72;0.85;;;28.10;48.00;;;;;;4942888;28;20206;-76
2022/07/12 10:48:48;;;;;;;3.55;1.00;;;28.00;47.70;;;;;;4943687;28;20907;-76
2022/07/12 10:51:19;;;;;;;1.38;0.80;;;28.00;47.60;;;;;;4943473;28;20203;-77
2022/07/12 10:53:50;;;;;;;2.95;0.90;;;27.90;47.80;;;;;;4942260;28;20277;-78
2022/07/12 10:56:25;;;;;;;1.35;0.70;;;28.00;48.00;;;;;;4938223;28;20196;-78
2022/07/12 10:58:59;;;;;;;5.55;0.70;;;28.10;47.80;;;;;;4935925;28;20222;-77
2022/07/12 11:01:30;;;;;;;1.45;0.75;;;28.20;48.00;;;;;;4953620;28;20612;-79
2022/07/12 11:04:06;;;;;;;2.15;0.80;;;28.30;48.10;;;;;;4943568;28;21219;-78
2022/07/12 11:06:37;;;;;;;4.90;1.10;;;28.40;48.10;;;;;;4942647;28;20285;-77
2022/07/12 11:09:08;;;;;;;3.50;0.90;;;28.30;48.10;;;;;;4948778;28;20203;-80
2022/07/12 11:11:43;;;;;;;1.92;0.88;;;28.30;48.00;;;;;;4947246;28;20619;-79
2022/07/12 11:14:13;;;;;;;2.83;0.80;;;28.40;47.80;;;;;;4936954;28;20225;-82
2022/07/12 11:16:47;;;;;;;1.67;0.90;;;28.50;47.30;;;;;;4949529;28;20209;-80
2022/07/12 11:19:16;;;;;;;3.17;0.95;;;28.50;47.50;;;;;;4947112;28;20197;-78
2022/07/12 11:21:45;;;;;;;2.03;0.73;;;28.50;45.80;;;;;;4940878;28;20202;-76
2022/07/12 11:24:17;;;;;;;1.90;0.90;;;28.60;45.70;;;;;;4947512;28;20652;-77
2022/07/12 11:26:46;;;;;;;1.65;0.80;;;28.60;45.10;;;;;;4949402;29;20207;-78
2022/07/12 11:29:15;;;;;;;2.22;1.02;;;28.50;45.20;;;;;;4948778;28;20206;-78
2022/07/12 11:31:45;;;;;;;3.05;0.70;;;28.50;45.80;;;;;;4946440;28;20226;-78
2022/07/12 11:34:24;;;;;;;1.13;0.70;;;28.50;45.40;;;;;;4944930;28;20211;-78
2022/07/12 11:36:54;;;;;;;3.17;0.80;;;28.50;45.90;;;;;;4940336;28;20202;-79
2022/07/12 11:39:33;;;;;;;1.33;0.70;;;28.50;46.20;;;;;;4947101;29;20210;-78
2022/07/12 11:42:02;;;;;;;1.58;0.98;;;28.60;46.20;;;;;;4943189;28;20199;-78
2022/07/12 11:44:44;;;;;;;5.40;0.63;;;28.60;46.30;;;;;;4942076;28;20205;-78
2022/07/12 11:47:14;;;;;;;1.38;0.75;;;28.60;45.70;;;;;;4945827;28;20217;-77
2022/07/12 11:49:45;;;;;;;2.05;0.63;;;28.60;45.70;;;;;;4948654;28;20199;-77
2022/07/12 11:52:15;;;;;;;1.60;0.70;;;28.60;45.90;;;;;;4942449;28;20221;-78
2022/07/12 11:54:44;;;;;;;4.03;0.90;;;28.50;45.80;;;;;;4945487;28;20776;-77
2022/07/12 11:57:13;;;;;;;1.08;0.70;;;28.60;45.70;;;;;;4946676;28;20203;-76
2022/07/12 11:59:42;;;;;;;2.45;0.80;;;28.60;46.20;;;;;;4948149;28;20700;-78
2022/07/12 12:02:15;;;;;;;2.63;1.08;;;28.70;45.80;;;;;;4945457;28;20212;-79
2022/07/12 12:04:48;;;;;;;1.08;0.70;;;28.70;45.10;;;;;;4947878;28;20226;-76
2022/07/12 12:07:18;;;;;;;3.17;0.70;;;28.80;44.90;;;;;;4943542;28;20194;-81
2022/07/12 12:10:05;;;;;;;1.65;0.60;;;28.80;45.20;;;;;;4949138;28;20198;-77
2022/07/12 12:12:38;;;;;;;2.28;0.75;;;28.80;45.20;;;;;;4944290;28;20194;-78
2022/07/12 12:15:08;;;;;;;1.10;0.70;;;28.70;44.70;;;;;;4938960;28;20221;-76
2022/07/12 12:17:43;;;;;;;1.67;0.80;;;28.70;44.80;;;;;;4945555;28;20217;-78
2022/07/12 12:20:17;;;;;;;2.28;0.70;;;28.80;45.00;;;;;;4943207;28;20205;-78
2022/07/12 12:22:47;;;;;;;2.97;0.80;;;28.80;43.60;;;;;;4948515;28;20661;-80
2022/07/12 12:25:16;;;;;;;1.90;0.70;;;28.80;43.40;;;;;;4942177;28;20190;-79
2022/07/12 12:27:46;;;;;;;1.98;0.68;;;28.90;43.10;;;;;;4940868;28;20198;-79
2022/07/12 12:30:48;;;;;;;1.00;0.70;;;28.90;43.30;;;;;;4945705;28;20199;-78
2022/07/12 12:33:34;;;;;;;2.05;0.60;;;29.00;43.60;;;;;;4947095;28;20558;-77
2022/07/12 12:36:17;;;;;;;0.77;0.63;;;29.10;43.90;;;;;;4939963;28;20229;-77
2022/07/12 12:38:47;;;;;;;1.05;0.80;;;29.20;43.40;;;;;;4947006;29;20194;-76
2022/07/12 12:41:17;;;;;;;2.13;0.60;;;29.10;42.70;;;;;;4955661;28;20216;-77
2022/07/12 12:43:45;;;;;;;1.00;0.57;;;29.20;43.10;;;;;;4946497;28;20206;-77
2022/07/12 12:46:22;;;;;;;1.58;0.80;;;29.30;43.00;;;;;;4944043;28;20257;-79
2022/07/12 12:48:53;;;;;;;0.98;0.60;;;29.40;43.00;;;;;;4941992;28;20201;-76
2022/07/12 12:51:21;;;;;;;3.53;0.70;;;29.50;42.70;;;;;;4945770;28;20683;-78
2022/07/12 12:53:57;;;;;;;1.98;0.70;;;29.60;41.50;;;;;;4941796;28;20217;-78
2022/07/12 12:56:25;;;;;;;2.13;0.43;;;29.60;41.20;;;;;;4940556;28;20772;-78
2022/07/12 12:58:55;;;;;;;0.90;0.70;;;29.70;41.20;;;;;;4942194;28;20210;-77
2022/07/12 13:01:23;;;;;;;2.45;0.70;;;29.60;39.90;;;;;;4938789;28;20202;-74
2022/07/12 13:03:53;;;;;;;1.73;0.70;;;29.60;40.20;;;;;;4940070;28;20272;-77
2022/07/12 13:06:22;;;;;;;0.90;0.60;;;29.70;41.00;;;;;;4942639;28;20198;-79
2022/07/12 13:08:51;;;;;;;1.48;0.60;;;29.80;41.30;;;;;;4946549;28;20285;-76
2022/07/12 13:11:19;;;;;;;2.30;0.55;;;29.70;41.00;;;;;;4946900;28;20202;-78